Time;durP1;ratioP1;P1;durP2;ratioP2;P2;SDS_P1;SDS_P2;PMS_P1;PMS_P2;Temp;Humidity;BMP_temperature;BMP_pressure;BME280_temperature;BME280_humidity;BME280_pressure;Samples;Min_cycle;Max_cycle;Signal;HPM_P1;HPM_P2
2022/06/30 00:09:40;;;;;;;13.53;9.57;;;21.10;99.90;;;;;;21076357;28;20203;-65
2022/06/30 00:19:42;;;;;;;14.70;9.10;;;21.00;99.90;;;;;;21090828;28;20321;-66
2022/06/30 00:29:46;;;;;;;11.83;8.73;;;21.00;99.90;;;;;;21090857;28;20256;-62
2022/06/30 00:39:47;;;;;;;14.80;8.60;;;21.00;99.90;;;;;;21089909;28;20246;-66
2022/06/30 00:49:49;;;;;;;13.33;8.80;;;20.80;99.90;;;;;;21089460;28;20202;-66
2022/06/30 00:59:56;;;;;;;20.00;9.53;;;20.70;99.90;;;;;;21088173;28;20241;-64
2022/06/30 01:20:24;;;;;;;27.57;13.90;;;20.70;99.90;;;;;;21087151;28;20632;-65
2022/06/30 01:30:25;;;;;;;38.50;17.80;;;20.70;99.90;;;;;;21085310;28;20217;-67
2022/06/30 01:40:30;;;;;;;38.13;17.50;;;20.70;99.90;;;;;;21089142;28;20244;-65
2022/06/30 01:50:32;;;;;;;22.60;11.43;;;20.70;99.90;;;;;;21085863;28;20208;-65
2022/06/30 02:00:34;;;;;;;13.43;10.00;;;20.70;99.90;;;;;;21084010;28;20244;-64
2022/06/30 02:10:36;;;;;;;22.90;11.60;;;20.50;99.90;;;;;;21084510;28;20248;-68
2022/06/30 02:20:38;;;;;;;22.30;12.93;;;20.50;99.90;;;;;;21084667;28;20233;-64
2022/06/30 02:30:39;;;;;;;20.43;11.57;;;20.50;99.90;;;;;;21090632;28;20205;-67
2022/06/30 02:40:41;;;;;;;22.23;12.63;;;20.40;99.90;;;;;;21084525;28;20245;-64
2022/06/30 02:50:46;;;;;;;25.70;13.20;;;20.50;99.90;;;;;;21084127;28;20202;-69
2022/06/30 03:00:47;;;;;;;22.10;14.13;;;20.50;99.90;;;;;;21079999;28;20268;-69
2022/06/30 03:10:49;;;;;;;39.90;16.13;;;20.40;99.90;;;;;;21086857;28;20214;-69
2022/06/30 03:20:51;;;;;;;22.93;14.27;;;20.40;99.90;;;;;;21079182;28;20255;-69
2022/06/30 03:30:53;;;;;;;25.13;13.90;;;20.30;99.90;;;;;;21078074;28;20262;-69
2022/06/30 03:40:55;;;;;;;17.37;12.47;;;20.30;99.90;;;;;;21077445;28;20248;-70
2022/06/30 03:50:57;;;;;;;30.63;13.87;;;20.40;99.90;;;;;;21087211;28;20217;-67
2022/06/30 04:00:59;;;;;;;35.53;13.83;;;20.20;99.90;;;;;;21093447;28;20331;-68
2022/06/30 04:11:00;;;;;;;25.30;14.67;;;20.10;99.90;;;;;;21092644;28;20208;-65
2022/06/30 04:21:02;;;;;;;19.53;13.23;;;20.10;99.90;;;;;;21091805;28;20237;-67
2022/06/30 04:41:25;;;;;;;21.93;12.53;;;20.30;99.90;;;;;;21089213;28;20236;-68
2022/06/30 04:51:27;;;;;;;28.63;16.73;;;20.30;99.90;;;;;;21089492;28;20213;-69
2022/06/30 05:01:29;;;;;;;28.27;16.33;;;20.40;99.90;;;;;;21087644;28;20237;-71
2022/06/30 05:11:30;;;;;;;22.30;15.07;;;20.60;99.90;;;;;;21087982;28;20210;-72
2022/06/30 05:21:32;;;;;;;23.83;15.77;;;20.70;99.90;;;;;;21088639;28;20245;-69
2022/06/30 05:31:34;;;;;;;25.47;16.57;;;20.70;99.90;;;;;;21086054;28;20213;-71
2022/06/30 05:41:36;;;;;;;25.17;16.17;;;20.80;99.90;;;;;;21085007;28;20238;-69
2022/06/30 05:51:37;;;;;;;19.97;14.13;;;21.00;99.90;;;;;;21081619;28;20201;-69
2022/06/30 06:01:39;;;;;;;19.20;13.90;;;21.10;99.90;;;;;;21080107;28;20226;-68
2022/06/30 06:11:42;;;;;;;23.60;15.13;;;21.20;99.90;;;;;;21079403;28;20209;-69
2022/06/30 06:21:45;;;;;;;22.80;15.20;;;21.30;99.90;;;;;;21081406;28;20261;-69
2022/06/30 06:31:48;;;;;;;19.40;14.87;;;21.50;99.90;;;;;;21081517;28;20271;-69
2022/06/30 06:41:49;;;;;;;19.50;16.00;;;21.60;99.90;;;;;;21079864;28;20744;-68
2022/06/30 06:51:51;;;;;;;21.53;15.53;;;21.80;99.90;;;;;;21080001;28;20206;-68
2022/06/30 07:01:52;;;;;;;30.80;15.13;;;22.00;99.90;;;;;;21078996;28;20237;-69
2022/06/30 07:11:54;;;;;;;18.73;13.97;;;22.20;99.90;;;;;;21060479;28;20203;-68
2022/06/30 07:21:56;;;;;;;22.87;14.87;;;22.40;99.90;;;;;;21074692;28;20242;-66
2022/06/30 07:31:58;;;;;;;17.87;11.97;;;22.60;99.90;;;;;;21076460;28;20272;-68
2022/06/30 07:41:59;;;;;;;35.60;22.27;;;22.70;99.90;;;;;;21074952;28;20249;-68
2022/06/30 07:52:01;;;;;;;18.70;11.87;;;23.00;99.90;;;;;;21076448;28;20654;-67
2022/06/30 08:02:03;;;;;;;21.00;12.37;;;23.30;99.90;;;;;;21076159;28;20560;-68
2022/06/30 08:12:06;;;;;;;12.93;8.70;;;23.60;99.90;;;;;;21076244;28;20213;-70
2022/06/30 08:22:08;;;;;;;16.50;10.93;;;23.80;99.90;;;;;;21080205;28;20238;-69
2022/06/30 08:32:12;;;;;;;16.03;9.53;;;24.10;99.90;;;;;;21076580;28;20241;-67
2022/06/30 08:42:17;;;;;;;8.77;6.73;;;24.40;99.90;;;;;;21089303;28;20299;-69
2022/06/30 08:52:19;;;;;;;10.50;6.40;;;24.60;99.90;;;;;;21089268;28;20614;-69
2022/06/30 09:02:21;;;;;;;10.27;6.03;;;24.80;98.80;;;;;;21087764;28;20272;-67
2022/06/30 09:12:23;;;;;;;11.40;5.63;;;25.10;98.00;;;;;;21086399;28;20199;-66
2022/06/30 09:22:34;;;;;;;8.50;5.70;;;25.40;96.30;;;;;;21087128;28;20216;-69
2022/06/30 09:32:55;;;;;;;8.20;6.03;;;25.60;94.20;;;;;;21085874;28;20724;-66
2022/06/30 09:42:57;;;;;;;11.07;4.90;;;25.90;92.90;;;;;;21084399;28;20658;-67
2022/06/30 09:53:06;;;;;;;6.43;3.50;;;26.30;91.40;;;;;;21084101;28;20276;-67
2022/06/30 10:03:08;;;;;;;6.70;4.13;;;26.60;87.60;;;;;;21085178;28;20213;-68
2022/06/30 10:13:14;;;;;;;5.60;4.30;;;26.80;82.90;;;;;;21082732;28;20705;-68
2022/06/30 10:23:21;;;;;;;7.27;3.20;;;27.00;80.70;;;;;;21083071;28;20209;-68
2022/06/30 10:33:52;;;;;;;5.97;3.03;;;27.30;78.00;;;;;;21082561;28;20230;-70
2022/06/30 10:44:03;;;;;;;8.90;4.53;;;27.60;73.80;;;;;;21081222;28;20237;-68
2022/06/30 10:54:06;;;;;;;5.43;3.33;;;27.80;72.10;;;;;;21079656;28;20244;-68
2022/06/30 11:04:11;;;;;;;6.40;4.40;;;27.80;69.60;;;;;;21080180;28;20293;-68
2022/06/30 11:14:14;;;;;;;4.73;4.07;;;27.70;69.90;;;;;;21076251;28;20226;-67
2022/06/30 11:24:20;;;;;;;7.03;3.67;;;27.80;70.70;;;;;;21077584;28;20199;-66
2022/06/30 11:34:22;;;;;;;6.55;3.45;;;27.90;69.10;;;;;;21077862;28;20291;-67
2022/06/30 11:44:28;;;;;;;6.07;3.40;;;28.10;65.90;;;;;;21077081;28;20310;-67
2022/06/30 11:54:30;;;;;;;3.65;2.78;;;28.40;65.30;;;;;;21075830;28;20230;-67
2022/06/30 12:04:34;;;;;;;4.13;2.60;;;28.60;61.70;;;;;;21076851;28;20260;-66
2022/06/30 12:14:40;;;;;;;3.45;2.63;;;28.60;59.70;;;;;;21093449;28;20244;-68
2022/06/30 12:24:45;;;;;;;5.43;2.60;;;28.80;58.40;;;;;;21115888;28;20658;-67
2022/06/30 12:34:50;;;;;;;3.13;2.42;;;29.20;57.10;;;;;;21109519;28;20317;-67
2022/06/30 12:44:52;;;;;;;5.68;2.58;;;29.30;56.20;;;;;;21097703;28;20283;-67
2022/06/30 12:54:58;;;;;;;6.50;2.90;;;29.40;55.40;;;;;;21111502;28;20284;-67
2022/06/30 13:05:00;;;;;;;7.40;2.95;;;29.50;54.90;;;;;;21133356;28;20210;-67
2022/06/30 13:15:01;;;;;;;3.22;2.40;;;29.60;53.50;;;;;;21116464;28;20283;-69
2022/06/30 13:25:04;;;;;;;5.03;2.70;;;29.60;52.90;;;;;;21093789;28;20294;-67
2022/06/30 13:35:05;;;;;;;10.40;2.70;;;29.80;52.40;;;;;;21088033;28;20234;-68
2022/06/30 13:45:07;;;;;;;6.25;2.47;;;29.90;52.30;;;;;;21085074;28;20238;-66
2022/06/30 13:55:09;;;;;;;5.13;2.53;;;30.00;52.30;;;;;;21085025;28;20748;-67
2022/06/30 14:05:11;;;;;;;5.72;2.55;;;30.10;51.20;;;;;;21089242;28;20203;-67
2022/06/30 14:15:13;;;;;;;2.97;2.60;;;30.00;50.60;;;;;;21069134;28;20249;-68
2022/06/30 14:25:15;;;;;;;5.55;2.80;;;30.00;50.10;;;;;;21082234;28;20652;-67
2022/06/30 14:35:17;;;;;;;2.97;2.67;;;30.10;50.20;;;;;;21079560;28;20237;-66
2022/06/30 14:45:21;;;;;;;3.42;2.50;;;30.40;49.80;;;;;;21080419;28;20230;-68
2022/06/30 14:55:23;;;;;;;8.48;2.60;;;30.30;49.90;;;;;;21079410;28;20337;-66
2022/06/30 15:05:30;;;;;;;5.40;2.30;;;30.40;49.30;;;;;;21078321;28;20211;-67
2022/06/30 15:15:32;;;;;;;4.53;2.67;;;30.50;49.10;;;;;;21078660;28;20639;-66
2022/06/30 15:25:34;;;;;;;4.13;2.58;;;30.60;48.60;;;;;;21077743;28;20198;-68
2022/06/30 15:35:36;;;;;;;6.72;2.75;;;30.80;48.20;;;;;;21078429;28;20235;-63
2022/06/30 15:45:40;;;;;;;3.20;2.58;;;30.60;48.30;;;;;;21084953;28;20230;-71
2022/06/30 15:55:41;;;;;;;3.30;2.63;;;30.50;48.50;;;;;;21076222;28;20596;-65
2022/06/30 16:05:43;;;;;;;4.10;2.42;;;30.60;48.50;;;;;;21094369;28;20207;-71
2022/06/30 16:15:45;;;;;;;3.53;2.60;;;30.50;48.80;;;;;;21093214;28;20240;-77
2022/06/30 16:25:47;;;;;;;6.22;4.22;;;30.30;49.30;;;;;;21090743;28;20209;-76
2022/06/30 16:35:49;;;;;;;6.70;4.65;;;30.00;49.80;;;;;;21091097;28;20235;-71
2022/06/30 16:45:53;;;;;;;7.53;3.88;;;29.60;50.70;;;;;;21089636;28;20241;-73
2022/06/30 16:55:55;;;;;;;10.77;4.35;;;29.40;51.40;;;;;;21089389;28;20367;-67
2022/06/30 17:05:59;;;;;;;7.15;4.13;;;29.10;54.60;;;;;;21089184;28;20707;-66
2022/06/30 17:16:00;;;;;;;5.47;3.80;;;28.70;57.80;;;;;;21089024;28;20241;-69
2022/06/30 17:26:04;;;;;;;7.47;3.53;;;28.50;59.10;;;;;;21086587;28;20205;-68
2022/06/30 17:36:06;;;;;;;4.13;3.10;;;28.40;58.80;;;;;;21085422;28;20651;-67
2022/06/30 17:46:10;;;;;;;6.97;3.57;;;28.20;59.40;;;;;;21085535;28;20698;-70
2022/06/30 17:56:13;;;;;;;5.60;3.67;;;28.00;60.10;;;;;;21084335;28;20237;-72
2022/06/30 18:16:35;;;;;;;6.63;3.10;;;27.70;61.70;;;;;;21085163;28;20237;-71
2022/06/30 18:26:37;;;;;;;4.77;3.17;;;27.70;61.90;;;;;;21083974;28;20214;-72
2022/06/30 18:36:40;;;;;;;5.60;3.50;;;27.90;60.30;;;;;;21079646;28;20234;-74
2022/06/30 18:46:42;;;;;;;5.00;3.60;;;27.90;60.10;;;;;;21063761;28;20245;-74
2022/06/30 18:56:44;;;;;;;7.27;3.37;;;27.80;60.20;;;;;;21079871;28;20245;-73
2022/06/30 19:06:45;;;;;;;6.53;3.60;;;27.70;60.60;;;;;;21079499;28;20211;-74
2022/06/30 19:16:47;;;;;;;4.30;3.63;;;27.60;60.80;;;;;;21079971;28;20231;-74
2022/06/30 19:26:49;;;;;;;5.63;3.00;;;27.40;61.80;;;;;;21077985;28;20211;-75
2022/06/30 19:36:51;;;;;;;4.03;2.80;;;27.30;60.90;;;;;;21059552;28;20257;-75
2022/06/30 19:46:53;;;;;;;5.53;3.10;;;27.30;59.40;;;;;;21078514;28;20226;-72
2022/06/30 19:56:55;;;;;;;9.67;3.40;;;27.20;58.90;;;;;;21076624;28;20242;-70
2022/06/30 20:06:58;;;;;;;4.40;2.10;;;27.00;59.50;;;;;;21077791;28;20198;-72
2022/06/30 20:16:59;;;;;;;5.20;2.50;;;26.70;60.60;;;;;;21077739;28;20728;-72
2022/06/30 20:27:01;;;;;;;4.10;2.50;;;26.50;61.00;;;;;;21076475;28;20681;-73
2022/06/30 20:37:03;;;;;;;2.80;2.50;;;26.40;59.60;;;;;;21089829;28;20226;-71
2022/06/30 20:47:05;;;;;;;5.10;2.70;;;26.40;59.40;;;;;;21090999;28;20607;-71
2022/06/30 20:57:07;;;;;;;3.30;2.80;;;26.30;60.50;;;;;;21089699;28;20238;-72
2022/06/30 21:07:09;;;;;;;4.50;2.90;;;26.20;61.10;;;;;;21087517;28;20202;-72
2022/06/30 21:17:13;;;;;;;2.90;2.63;;;26.10;61.30;;;;;;21089178;28;20233;-70
2022/06/30 21:27:15;;;;;;;5.83;2.60;;;26.10;62.10;;;;;;21087746;28;20256;-73
2022/06/30 21:37:17;;;;;;;4.87;2.80;;;26.00;62.20;;;;;;21086870;28;20712;-71
2022/06/30 21:47:18;;;;;;;3.50;2.77;;;25.90;62.30;;;;;;21085763;28;20230;-70
2022/06/30 21:57:20;;;;;;;11.00;3.10;;;25.80;62.70;;;;;;21085523;28;20249;-71
2022/06/30 22:07:22;;;;;;;6.90;3.50;;;25.60;64.80;;;;;;21084354;28;20207;-71
2022/06/30 22:17:24;;;;;;;7.30;3.40;;;25.10;70.10;;;;;;21083634;28;20235;-73
2022/06/30 22:27:25;;;;;;;17.80;3.50;;;24.60;74.60;;;;;;21082575;28;20207;-76
2022/06/30 22:37:27;;;;;;;8.63;3.20;;;24.40;75.30;;;;;;21062437;28;20240;-72
2022/06/30 22:47:32;;;;;;;9.10;3.73;;;24.20;76.10;;;;;;21083193;28;20238;-72
2022/06/30 22:57:33;;;;;;;6.70;3.47;;;23.80;78.30;;;;;;21080142;28;20596;-72
2022/06/30 23:07:35;;;;;;;16.73;3.67;;;23.40;80.30;;;;;;21080591;28;20210;-74
2022/06/30 23:17:37;;;;;;;5.33;2.97;;;22.90;82.90;;;;;;21080649;28;20242;-70
2022/06/30 23:27:39;;;;;;;3.77;2.87;;;23.00;83.60;;;;;;21079263;28;20271;-72
2022/06/30 23:37:41;;;;;;;5.43;3.07;;;23.10;83.60;;;;;;21061147;28;20601;-73
2022/06/30 23:47:42;;;;;;;9.43;3.27;;;22.90;84.00;;;;;;21078824;28;20658;-74
2022/06/30 23:57:44;;;;;;;4.30;3.00;;;22.80;84.30;;;;;;21077574;28;20237;-74
